createdAt,value
2018-07-09T00:00:58.684Z,102244.70
2018-07-09T00:03:27.910Z,102239.31
2018-07-09T00:05:56.780Z,102243.42
2018-07-09T00:08:25.775Z,102235.75
2018-07-09T00:11:00.495Z,102230.34
2018-07-09T00:13:30.854Z,102233.69
2018-07-09T00:16:00.088Z,102241.09
2018-07-09T00:18:29.246Z,102236.22
2018-07-09T00:20:58.428Z,102239.00
2018-07-09T00:23:27.463Z,102242.61
2018-07-09T00:25:57.282Z,102229.53
2018-07-09T00:28:26.448Z,102232.84
2018-07-09T00:30:55.573Z,102234.82
2018-07-09T00:33:24.361Z,102233.50
2018-07-09T00:35:53.389Z,102229.94
2018-07-09T00:38:22.461Z,102221.30
2018-07-09T00:40:51.378Z,102226.61
2018-07-09T00:43:20.631Z,102231.11
2018-07-09T00:45:49.726Z,102232.22
2018-07-09T00:48:19.475Z,102225.46
2018-07-09T00:50:48.297Z,102225.25
2018-07-09T00:53:17.604Z,102226.35
2018-07-09T00:55:46.703Z,102228.08
2018-07-09T00:58:15.859Z,102224.55
2018-07-09T01:00:44.900Z,102223.19
2018-07-09T01:03:13.879Z,102215.05
2018-07-09T01:05:42.898Z,102227.38
2018-07-09T01:08:12.007Z,102232.84
2018-07-09T01:10:52.019Z,102227.69
2018-07-09T01:13:27.114Z,102226.37
2018-07-09T01:15:56.176Z,102235.45
2018-07-09T01:18:25.294Z,102235.48
2018-07-09T01:20:54.906Z,102232.31
2018-07-09T01:23:24.346Z,102226.89
2018-07-09T01:25:53.338Z,102227.20
2018-07-09T01:28:22.396Z,102231.64
2018-07-09T01:30:51.696Z,102236.92
2018-07-09T01:33:20.570Z,102232.34
2018-07-09T01:35:49.748Z,102231.59
2018-07-09T01:38:18.564Z,102229.43
2018-07-09T01:40:47.377Z,102226.13
2018-07-09T01:43:16.538Z,102228.33
2018-07-09T01:45:45.796Z,102240.34
2018-07-09T01:48:14.633Z,102234.05
2018-07-09T01:50:43.427Z,102231.37
2018-07-09T01:53:12.348Z,102232.50
2018-07-09T01:55:41.248Z,102232.50
2018-07-09T01:58:10.122Z,102241.80
2018-07-09T02:00:39.170Z,102227.62
2018-07-09T02:03:08.297Z,102228.53
2018-07-09T02:05:37.791Z,102226.91
2018-07-09T02:08:07.033Z,102224.78
2018-07-09T02:10:36.039Z,102223.49
2018-07-09T02:13:05.071Z,102231.72
2018-07-09T02:15:34.902Z,102225.73
2018-07-09T02:18:04.300Z,102225.55
2018-07-09T02:20:33.065Z,102219.56
2018-07-09T02:23:02.198Z,102215.50
2018-07-09T02:25:31.213Z,102216.37
2018-07-09T02:28:00.487Z,102221.08
2018-07-09T02:30:29.546Z,102223.05
2018-07-09T02:32:58.565Z,102218.42
2018-07-09T02:35:28.505Z,102215.16
2018-07-09T02:37:57.884Z,102214.40
2018-07-09T02:40:27.581Z,102211.14
2018-07-09T02:42:56.578Z,102215.50
2018-07-09T02:45:25.351Z,102211.95
2018-07-09T02:47:54.191Z,102213.61
2018-07-09T02:50:23.249Z,102214.17
2018-07-09T02:52:52.503Z,102206.79
2018-07-09T02:55:21.648Z,102205.69
2018-07-09T02:57:50.395Z,102211.11
2018-07-09T03:00:19.572Z,102205.31
2018-07-09T03:02:48.503Z,102203.12
2018-07-09T03:05:17.613Z,102198.42
2018-07-09T03:07:46.849Z,102205.77
2018-07-09T03:10:15.599Z,102209.79
2018-07-09T03:12:44.613Z,102208.72
2018-07-09T03:15:13.352Z,102215.55
2018-07-09T03:17:42.995Z,102212.28
2018-07-09T03:20:12.480Z,102205.46
2018-07-09T03:22:41.619Z,102209.25
2018-07-09T03:25:10.690Z,102217.13
2018-07-09T03:27:39.486Z,102218.45
2018-07-09T03:30:08.299Z,102221.15
2018-07-09T03:32:37.419Z,102226.30
2018-07-09T03:35:06.241Z,102226.60
2018-07-09T03:37:34.988Z,102222.47
2018-07-09T03:40:03.760Z,102214.02
2018-07-09T03:42:32.641Z,102216.45
2018-07-09T03:45:01.714Z,102211.22
2018-07-09T03:47:30.461Z,102215.53
2018-07-09T03:49:59.642Z,102210.53
2018-07-09T03:52:28.667Z,102218.72
2018-07-09T03:54:57.427Z,102227.39
2018-07-09T03:57:26.515Z,102223.53
2018-07-09T03:59:55.592Z,102230.57
2018-07-09T04:02:24.701Z,102225.64
2018-07-09T04:04:53.462Z,102222.60
2018-07-09T04:07:22.382Z,102223.97
2018-07-09T04:09:51.132Z,102225.59
2018-07-09T04:12:20.564Z,102228.82
2018-07-09T04:14:49.978Z,102233.17
2018-07-09T04:17:19.037Z,102228.52
2018-07-09T04:19:48.186Z,102231.24
2018-07-09T04:22:17.548Z,102238.33
2018-07-09T04:24:46.636Z,102237.98
2018-07-09T04:27:15.763Z,102234.95
2018-07-09T04:29:44.767Z,102236.49
2018-07-09T04:32:13.553Z,102237.25
2018-07-09T04:34:42.339Z,102249.71
2018-07-09T04:37:11.424Z,102240.37
2018-07-09T04:39:40.253Z,102237.29
2018-07-09T04:42:09.083Z,102233.73
2018-07-09T04:44:38.158Z,102232.63
2018-07-09T04:47:08.024Z,102228.44
2018-07-09T04:49:37.801Z,102222.63
2018-07-09T04:52:07.488Z,102221.25
2018-07-09T04:54:37.091Z,102219.22
2018-07-09T04:57:06.895Z,102221.59
2018-07-09T04:59:36.960Z,102220.70
2018-07-09T05:02:05.992Z,102220.60
2018-07-09T05:04:35.264Z,102215.31
2018-07-09T05:07:04.355Z,102220.90
2018-07-09T05:09:33.159Z,102219.17
2018-07-09T05:12:02.660Z,102213.86
2018-07-09T05:14:31.723Z,102218.61
2018-07-09T05:17:00.846Z,102215.15
2018-07-09T05:19:29.762Z,102205.68
2018-07-09T05:21:58.815Z,102203.06
2018-07-09T05:24:28.082Z,102204.27
2018-07-09T05:26:56.975Z,102197.26
2018-07-09T05:29:26.179Z,102192.41
2018-07-09T05:31:55.031Z,102203.98
2018-07-09T05:34:24.324Z,102202.53
2018-07-09T05:36:53.181Z,102200.19
2018-07-09T05:39:22.649Z,102199.44
2018-07-09T05:41:52.278Z,102200.12
2018-07-09T05:44:21.123Z,102189.59
2018-07-09T05:46:50.227Z,102196.08
2018-07-09T05:49:19.369Z,102196.75
2018-07-09T05:51:48.780Z,102197.36
2018-07-09T05:54:18.766Z,102196.66
2018-07-09T05:56:47.608Z,102202.52
2018-07-09T05:59:16.652Z,102196.09
2018-07-09T06:01:45.627Z,102204.23
2018-07-09T06:04:14.735Z,102197.52
2018-07-09T06:06:43.599Z,102191.66
2018-07-09T06:09:12.894Z,102189.00
2018-07-09T06:11:41.898Z,102186.89
2018-07-09T06:14:11.385Z,102189.33
2018-07-09T06:16:40.497Z,102187.13
2018-07-09T06:19:09.604Z,102195.08
2018-07-09T06:21:38.708Z,102197.35
2018-07-09T06:24:08.416Z,102211.81
2018-07-09T06:26:38.059Z,102212.47
2018-07-09T06:29:07.199Z,102216.83
2018-07-09T06:31:36.365Z,102214.16
2018-07-09T06:34:05.159Z,102218.71
2018-07-09T06:36:34.591Z,102213.88
2018-07-09T06:39:03.785Z,102207.13
2018-07-09T06:41:32.567Z,102210.27
2018-07-09T06:44:01.541Z,102203.58
2018-07-09T06:46:31.109Z,102212.70
2018-07-09T06:48:59.921Z,102203.82
2018-07-09T06:51:28.723Z,102204.72
2018-07-09T06:53:58.065Z,102200.94
2018-07-09T06:56:26.890Z,102212.27
2018-07-09T06:58:55.702Z,102208.54
2018-07-09T07:01:24.820Z,102207.59
2018-07-09T07:03:53.663Z,102209.34
2018-07-09T07:06:23.166Z,102204.11
2018-07-09T07:08:52.661Z,102204.41
2018-07-09T07:11:21.754Z,102213.07
2018-07-09T07:13:51.222Z,102206.59
2018-07-09T07:16:20.056Z,102208.38
2018-07-09T07:18:49.417Z,102205.59
2018-07-09T07:21:18.321Z,102213.58
2018-07-09T07:23:47.513Z,102213.08
2018-07-09T07:26:16.382Z,102220.36
2018-07-09T07:28:45.139Z,102207.00
2018-07-09T07:31:14.376Z,102209.91
2018-07-09T07:33:43.169Z,102211.66
2018-07-09T07:36:12.086Z,102210.14
2018-07-09T07:38:41.171Z,102209.26
2018-07-09T07:41:10.593Z,102207.22
2018-07-09T07:43:39.433Z,102207.59
2018-07-09T07:46:09.022Z,102205.00
2018-07-09T07:48:38.507Z,102203.94
2018-07-09T07:51:07.437Z,102199.84
2018-07-09T07:53:36.565Z,102197.41
2018-07-09T07:56:05.625Z,102201.28
2018-07-09T07:58:34.683Z,102194.56
2018-07-09T08:01:03.723Z,102198.02
2018-07-09T08:03:32.847Z,102195.11
2018-07-09T08:06:01.859Z,102196.13
2018-07-09T08:08:30.612Z,102197.50
2018-07-09T08:11:10.909Z,102188.02
2018-07-09T08:13:29.227Z,102185.39
2018-07-09T08:15:57.748Z,102195.27
2018-07-09T08:18:26.801Z,102196.11
2018-07-09T08:20:55.703Z,102197.20
2018-07-09T08:23:24.562Z,102196.63
2018-07-09T08:25:56.036Z,102190.93
2018-07-09T08:28:24.851Z,102195.55
2018-07-09T08:30:53.960Z,102191.22
2018-07-09T08:33:23.563Z,102203.38
2018-07-09T08:35:52.403Z,102198.39
2018-07-09T08:38:21.171Z,102197.62
2018-07-09T08:40:50.363Z,102203.08
2018-07-09T08:43:19.540Z,102191.62
2018-07-09T08:45:48.346Z,102197.27
2018-07-09T08:48:17.490Z,102192.32
2018-07-09T08:50:46.261Z,102191.98
2018-07-09T08:53:15.629Z,102187.34
2018-07-09T08:55:44.922Z,102180.16
2018-07-09T08:58:14.280Z,102183.13
2018-07-09T09:00:43.688Z,102184.61
2018-07-09T09:03:12.833Z,102181.44
2018-07-09T09:05:41.881Z,102190.19
2018-07-09T09:08:10.720Z,102188.57
2018-07-09T09:10:39.489Z,102185.38
2018-07-09T09:13:08.612Z,102188.02
2018-07-09T09:15:37.692Z,102187.66
2018-07-09T09:18:06.520Z,102182.83
2018-07-09T09:20:35.727Z,102182.50
2018-07-09T09:23:04.576Z,102184.80
2018-07-09T09:25:33.394Z,102173.75
2018-07-09T09:28:02.202Z,102173.66
2018-07-09T09:30:31.191Z,102181.71
2018-07-09T09:33:00.195Z,102174.47
2018-07-09T09:35:29.568Z,102171.12
2018-07-09T09:37:58.850Z,102163.64
2018-07-09T09:40:27.640Z,102157.64
2018-07-09T09:42:56.448Z,102166.37
2018-07-09T09:45:25.409Z,102168.54
2018-07-09T09:47:54.665Z,102164.87
2018-07-09T09:50:23.743Z,102158.09
2018-07-09T09:52:53.396Z,102159.47
2018-07-09T09:55:22.910Z,102167.42
2018-07-09T09:57:52.330Z,102165.92
2018-07-09T10:00:25.220Z,102163.75
2018-07-09T10:02:54.245Z,102159.02
2018-07-09T10:05:23.404Z,102160.29
2018-07-09T10:07:52.347Z,102167.74
2018-07-09T10:10:21.203Z,102155.20
2018-07-09T10:12:50.209Z,102154.97
2018-07-09T10:15:19.480Z,102152.95
2018-07-09T10:17:48.306Z,102157.62
2018-07-09T10:20:17.142Z,102149.58
2018-07-09T10:22:50.333Z,102151.52
2018-07-09T10:25:19.707Z,102152.56
2018-07-09T10:27:48.805Z,102147.38
2018-07-09T10:30:18.294Z,102144.48
2018-07-09T10:32:47.717Z,102146.34
2018-07-09T10:35:17.115Z,102154.53
2018-07-09T10:37:46.259Z,102147.06
2018-07-09T10:40:15.053Z,102148.58
2018-07-09T10:42:45.108Z,102153.53
2018-07-09T10:45:14.212Z,102151.67
2018-07-09T10:47:43.002Z,102141.86
2018-07-09T10:50:12.824Z,102148.45
2018-07-09T10:52:41.932Z,102145.27
2018-07-09T10:55:11.212Z,102144.25
2018-07-09T10:57:40.618Z,102140.37
2018-07-09T11:00:09.891Z,102142.15
2018-07-09T11:02:38.733Z,102134.45
2018-07-09T11:05:07.915Z,102134.31
2018-07-09T11:07:36.700Z,102136.19
2018-07-09T11:10:06.136Z,102138.92
2018-07-09T11:12:34.944Z,102136.02
2018-07-09T11:15:03.991Z,102134.56
2018-07-09T11:17:33.391Z,102132.02
2018-07-09T11:20:02.999Z,102129.20
2018-07-09T11:22:32.503Z,102128.34
2018-07-09T11:25:01.295Z,102128.95
2018-07-09T11:27:30.638Z,102129.77
2018-07-09T11:30:00.024Z,102128.33
2018-07-09T11:32:29.372Z,102133.78
2018-07-09T11:34:58.683Z,102141.87
2018-07-09T11:37:28.143Z,102142.70
2018-07-09T11:39:56.981Z,102136.98
2018-07-09T11:42:26.129Z,102135.13
2018-07-09T11:44:55.477Z,102139.55
2018-07-09T11:47:24.871Z,102134.81
2018-07-09T11:49:53.945Z,102131.20
2018-07-09T11:52:23.067Z,102130.50
2018-07-09T11:54:52.226Z,102144.47
2018-07-09T11:57:21.025Z,102136.59
2018-07-09T11:59:50.089Z,102142.47
2018-07-09T12:02:18.865Z,102155.27
2018-07-09T12:04:47.797Z,102137.75
2018-07-09T12:07:16.579Z,102131.70
2018-07-09T12:09:45.737Z,102133.52
2018-07-09T12:12:15.098Z,102133.05
2018-07-09T12:14:43.947Z,102124.44
2018-07-09T12:17:13.448Z,102138.36
2018-07-09T12:19:42.790Z,102124.55
2018-07-09T12:22:11.944Z,102125.94
2018-07-09T12:24:41.400Z,102132.27
2018-07-09T12:27:26.444Z,102129.38
2018-07-09T12:29:55.967Z,102138.92
2018-07-09T12:32:25.447Z,102134.20
2018-07-09T12:34:54.310Z,102130.20
2018-07-09T12:37:23.572Z,102130.52
2018-07-09T12:39:52.707Z,102132.38
2018-07-09T12:42:22.148Z,102126.50
2018-07-09T12:44:51.103Z,102137.88
2018-07-09T12:47:19.983Z,102128.46
2018-07-09T12:49:48.929Z,102125.55
2018-07-09T12:52:18.116Z,102128.02
2018-07-09T12:54:47.839Z,102133.71
2018-07-09T12:57:16.721Z,102120.16
2018-07-09T12:59:46.247Z,102128.63
2018-07-09T13:02:15.800Z,102129.69
2018-07-09T13:04:45.244Z,102132.84
2018-07-09T13:07:15.061Z,102128.23
2018-07-09T13:09:43.944Z,102126.86
2018-07-09T13:12:13.129Z,102122.25
2018-07-09T13:14:42.373Z,102126.85
2018-07-09T13:17:11.478Z,102126.39
2018-07-09T13:19:40.930Z,102119.40
2018-07-09T13:22:09.854Z,102114.77
2018-07-09T13:24:38.688Z,102116.16
2018-07-09T13:27:08.178Z,102118.12
2018-07-09T13:29:37.066Z,102126.05
2018-07-09T13:32:06.231Z,102119.48
2018-07-09T13:34:35.629Z,102122.83
2018-07-09T13:37:05.418Z,102114.23
2018-07-09T13:39:35.106Z,102120.98
2018-07-09T13:42:07.586Z,102131.19
2018-07-09T13:44:37.036Z,102133.45
2018-07-09T13:47:06.110Z,102130.20
2018-07-09T13:49:35.289Z,102128.13
2018-07-09T13:52:04.505Z,102126.80
2018-07-09T13:54:33.757Z,102123.80
2018-07-09T13:57:02.644Z,102122.16
2018-07-09T13:59:31.779Z,102121.63
2018-07-09T14:02:00.975Z,102119.96
2018-07-09T14:04:30.388Z,102117.13
2018-07-09T14:06:59.289Z,102117.61
2018-07-09T14:09:28.238Z,102113.52
2018-07-09T14:11:57.086Z,102110.63
2018-07-09T14:14:26.187Z,102113.33
2018-07-09T14:16:55.110Z,102109.84
2018-07-09T14:20:34.490Z,102105.22
2018-07-09T14:23:04.268Z,102101.33
2018-07-09T14:25:33.505Z,102100.84
2018-07-09T14:28:02.934Z,102105.38
2018-07-09T14:30:32.468Z,102111.17
2018-07-09T14:33:05.200Z,102096.58
2018-07-09T14:35:34.385Z,102088.42
2018-07-09T14:38:03.291Z,102088.94
2018-07-09T14:40:32.163Z,102080.59
2018-07-09T14:43:01.087Z,102078.21
2018-07-09T14:45:30.278Z,102077.08
2018-07-09T14:47:59.180Z,102077.70
2018-07-09T14:50:28.488Z,102078.19
2018-07-09T14:52:57.653Z,102071.07
2018-07-09T14:55:26.847Z,102072.78
2018-07-09T14:57:55.769Z,102075.72
2018-07-09T15:00:24.732Z,102067.14
2018-07-09T15:02:54.506Z,102077.64
2018-07-09T15:05:23.645Z,102066.84
2018-07-09T15:07:53.763Z,102064.82
2018-07-09T15:10:22.981Z,102064.48
2018-07-09T15:12:51.856Z,102061.45
2018-07-09T15:15:20.787Z,102050.53
2018-07-09T15:17:50.606Z,102047.59
2018-07-09T15:20:19.764Z,102045.20
2018-07-09T15:22:48.685Z,102038.55
2018-07-09T15:25:17.587Z,102040.50
2018-07-09T15:27:46.939Z,102032.11
2018-07-09T15:30:16.107Z,102034.98
2018-07-09T15:32:44.975Z,102034.66
2018-07-09T15:35:14.168Z,102031.77
2018-07-09T15:37:43.697Z,102033.47
2018-07-09T15:40:12.568Z,102022.39
2018-07-09T15:42:41.722Z,102024.89
2018-07-09T15:45:10.593Z,102020.41
2018-07-09T15:47:39.567Z,102019.22
2018-07-09T15:50:08.466Z,102018.58
2018-07-09T15:52:37.661Z,102022.15
2018-07-09T15:55:06.621Z,102019.16
2018-07-09T15:57:35.500Z,102017.78
2018-07-09T16:00:04.481Z,102016.05
2018-07-09T16:02:33.356Z,102006.36
2018-07-09T16:05:02.249Z,102007.36
2018-07-09T16:07:31.463Z,102006.28
2018-07-09T16:10:00.981Z,102007.42
2018-07-09T16:12:30.135Z,102007.27
2018-07-09T16:14:59.385Z,101994.77
2018-07-09T16:17:28.502Z,101998.12
2018-07-09T16:19:57.789Z,101995.28
2018-07-09T16:22:27.016Z,101990.64
2018-07-09T16:24:56.479Z,101995.05
2018-07-09T16:27:25.840Z,101989.98
2018-07-09T16:29:55.097Z,101987.42
2018-07-09T16:32:24.500Z,101993.00
2018-07-09T16:34:53.998Z,101996.33
2018-07-09T16:37:22.888Z,101991.53
2018-07-09T16:39:52.117Z,101993.61
2018-07-09T16:42:21.049Z,101985.52
2018-07-09T16:44:50.255Z,101985.52
2018-07-09T16:47:19.474Z,101991.80
2018-07-09T16:49:48.664Z,101988.29
2018-07-09T16:52:17.527Z,101989.97
2018-07-09T16:54:47.166Z,101994.42
2018-07-09T16:57:16.005Z,101992.39
2018-07-09T16:59:45.506Z,101990.16
2018-07-09T17:02:14.700Z,101997.52
2018-07-09T17:04:43.823Z,101993.40
2018-07-09T17:07:12.770Z,101993.66
2018-07-09T17:09:42.414Z,101990.83
2018-07-09T17:12:11.576Z,101992.20
2018-07-09T17:14:40.488Z,101990.37
2018-07-09T17:17:09.369Z,101985.13
2018-07-09T17:19:38.344Z,101982.22
2018-07-09T17:22:11.703Z,101979.23
2018-07-09T17:24:40.663Z,101969.00
2018-07-09T17:27:09.678Z,101972.87
2018-07-09T17:29:38.583Z,101968.02
2018-07-09T17:32:07.959Z,101965.39
2018-07-09T17:34:36.920Z,101965.11
2018-07-09T17:37:06.540Z,101968.72
2018-07-09T17:39:35.756Z,101962.52
2018-07-09T17:42:04.659Z,101964.06
2018-07-09T17:44:33.613Z,101953.64
2018-07-09T17:47:02.516Z,101949.23
2018-07-09T17:49:32.043Z,101943.54
2018-07-09T17:52:01.206Z,101943.41
2018-07-09T17:54:30.557Z,101949.02
2018-07-09T17:57:00.220Z,101950.38
2018-07-09T17:59:30.155Z,101946.64
2018-07-09T18:01:59.700Z,101950.38
2018-07-09T18:04:28.906Z,101945.92
2018-07-09T18:06:57.769Z,101945.09
2018-07-09T18:09:26.709Z,101951.27
2018-07-09T18:11:55.545Z,101946.28
2018-07-09T18:14:24.783Z,101951.55
2018-07-09T18:16:53.919Z,101944.91
2018-07-09T18:19:23.498Z,101946.16
2018-07-09T18:21:52.714Z,101946.58
2018-07-09T18:24:21.632Z,101947.36
2018-07-09T18:26:51.370Z,101947.36
2018-07-09T18:29:20.641Z,101951.76
2018-07-09T18:31:50.040Z,101950.06
2018-07-09T18:34:19.383Z,101944.20
2018-07-09T18:36:48.522Z,101944.52
2018-07-09T18:39:18.881Z,101943.53
2018-07-09T18:41:50.668Z,101947.92
2018-07-09T18:44:21.081Z,101942.36
2018-07-09T18:46:51.178Z,101940.16
2018-07-09T18:49:20.921Z,101941.86
2018-07-09T18:51:51.144Z,101934.86
2018-07-09T18:54:22.404Z,101931.16
2018-07-09T18:56:52.596Z,101924.69
2018-07-09T18:59:23.247Z,101926.84
2018-07-09T19:01:53.433Z,101926.14
2018-07-09T19:04:24.509Z,101927.40
2018-07-09T19:06:58.243Z,101928.37
2018-07-09T19:09:29.971Z,101919.66
2018-07-09T19:12:02.554Z,101915.48
2018-07-09T19:14:37.502Z,101917.58
2018-07-09T19:18:03.659Z,101908.89
2018-07-09T19:20:44.999Z,101913.70
2018-07-09T19:23:14.656Z,101905.24
2018-07-09T19:25:44.099Z,101909.67
2018-07-09T19:28:12.658Z,101904.27
2018-07-09T19:30:41.319Z,101906.44
2018-07-09T19:33:09.848Z,101912.41
2018-07-09T19:35:38.267Z,101905.06
2018-07-09T19:38:06.409Z,101913.03
2018-07-09T19:40:34.633Z,101913.28
2018-07-09T19:43:02.262Z,101906.37
2018-07-09T19:45:29.982Z,101905.22
2018-07-09T19:47:57.546Z,101908.53
2018-07-09T19:50:25.074Z,101906.52
2018-07-09T19:52:52.583Z,101909.10
2018-07-09T19:55:20.274Z,101909.25
2018-07-09T19:57:47.784Z,101908.42
2018-07-09T20:00:15.253Z,101901.11
2018-07-09T20:02:50.415Z,101892.91
2018-07-09T20:05:17.863Z,101895.72
2018-07-09T20:07:45.980Z,101883.14
2018-07-09T20:10:18.712Z,101887.97
2018-07-09T20:12:51.286Z,101881.20
2018-07-09T20:15:23.821Z,101884.66
2018-07-09T20:17:51.287Z,101890.14
2018-07-09T20:20:19.010Z,101883.37
2018-07-09T20:22:46.786Z,101881.67
2018-07-09T20:25:14.600Z,101879.88
2018-07-09T20:27:42.382Z,101882.69
2018-07-09T20:30:09.835Z,101871.27
2018-07-09T20:32:37.594Z,101875.05
2018-07-09T20:35:05.359Z,101874.48
2018-07-09T20:37:32.913Z,101866.59
2018-07-09T20:40:00.741Z,101863.28
2018-07-09T20:42:28.166Z,101865.98
2018-07-09T20:44:56.325Z,101868.61
2018-07-09T20:47:23.851Z,101869.98
2018-07-09T20:49:51.560Z,101864.11
2018-07-09T20:52:19.074Z,101871.98
2018-07-09T20:54:46.582Z,101869.86
2018-07-09T20:57:14.885Z,101864.59
2018-07-09T20:59:42.817Z,101869.91
2018-07-09T21:02:10.251Z,101870.69
2018-07-09T21:04:38.037Z,101872.85
2018-07-09T21:07:05.591Z,101873.69
2018-07-09T21:09:34.092Z,101872.39
2018-07-09T21:12:08.950Z,101876.30
2018-07-09T21:14:36.451Z,101872.27
2018-07-09T21:17:04.160Z,101879.48
2018-07-09T21:19:31.910Z,101876.66
2018-07-09T21:21:59.471Z,101878.88
2018-07-09T21:24:27.155Z,101873.30
2018-07-09T21:26:54.619Z,101870.25
2018-07-09T21:29:22.396Z,101872.05
2018-07-09T21:31:49.879Z,101869.61
2018-07-09T21:34:17.723Z,101865.75
2018-07-09T21:36:45.171Z,101860.50
2018-07-09T21:39:12.893Z,101856.36
2018-07-09T21:41:41.410Z,101854.02
2018-07-09T21:44:09.438Z,101852.13
2018-07-09T21:46:37.133Z,101845.94
2018-07-09T21:49:04.559Z,101853.73
2018-07-09T21:51:32.067Z,101842.83
2018-07-09T21:53:59.739Z,101837.11
2018-07-09T21:56:27.310Z,101839.84
2018-07-09T21:58:55.006Z,101847.52
2018-07-09T22:01:22.485Z,101845.84
2018-07-09T22:03:50.170Z,101847.25
2018-07-09T22:06:17.615Z,101844.27
2018-07-09T22:08:45.194Z,101847.73
2018-07-09T22:11:12.654Z,101843.05
2018-07-09T22:13:40.373Z,101841.38
2018-07-09T22:16:08.340Z,101833.25
2018-07-09T22:18:36.145Z,101831.88
2018-07-09T22:21:03.579Z,101836.45
2018-07-09T22:23:32.070Z,101834.72
2018-07-09T22:25:59.978Z,101829.83
2018-07-09T22:28:27.406Z,101822.27
2018-07-09T22:30:56.193Z,101813.04
2018-07-09T22:33:26.210Z,101816.67
2018-07-09T22:35:54.982Z,101817.47
2018-07-09T22:38:23.779Z,101812.89
2018-07-09T22:40:52.845Z,101810.65
2018-07-09T22:43:33.174Z,101813.20
2018-07-09T22:46:02.266Z,101820.51
2018-07-09T22:48:31.137Z,101820.20
2018-07-09T22:51:00.470Z,101817.41
2018-07-09T22:53:29.666Z,101815.52
2018-07-09T22:56:11.497Z,101818.41
2018-07-09T22:58:41.702Z,101814.09
2018-07-09T23:01:10.537Z,101817.61
2018-07-09T23:03:39.494Z,101811.36
2018-07-09T23:06:08.783Z,101810.48
2018-07-09T23:08:37.646Z,101800.02
2018-07-09T23:11:17.837Z,101798.03
2018-07-09T23:14:57.501Z,101801.33
2018-07-09T23:17:37.600Z,101786.06
2018-07-09T23:20:55.649Z,101787.42
2018-07-09T23:23:27.474Z,101783.59
2018-07-09T23:25:55.056Z,101777.08
2018-07-09T23:28:22.804Z,101779.81
2018-07-09T23:30:50.293Z,101774.16
2018-07-09T23:33:18.604Z,101770.44
2018-07-09T23:35:46.127Z,101774.58
2018-07-09T23:38:13.843Z,101773.53
2018-07-09T23:40:41.303Z,101772.91
2018-07-09T23:43:08.797Z,101766.09
2018-07-09T23:45:36.359Z,101769.07
2018-07-09T23:48:03.804Z,101768.19
2018-07-09T23:50:31.590Z,101766.09
2018-07-09T23:53:00.105Z,101761.20
2018-07-09T23:55:31.006Z,101756.66
